PWSweather.com
Personal Weather Stations
Station Observations

SkegnessGB

Lat: 53.147585, Lon: 0.345774

Elevation: 18

Station Type: Fine Offset WH3080

http://www.skegnessweather.info/

High Low Average
Temperature 57.0°F13.9°F 36.9°F2.7°F 46.9°F8.3°F
Dew Point 34.9°F1.6°F 26.0°F-3.3°F 31.1°F-0.5°F
Winds 17.0 mph -27.4 mph - 0.3 mph 0.5 mph 5.2 mph 8.4 mph
Wind Gusts 18.5 mph29.8 mph 1.7 mph2.7 mph 7.2 mph11.6 mph
Humidity 76% 33% 56%
Pressure 30.48 in1032.20 in 30.25 in1024.40 in -
Precipitation 0.00 in0.00 in - -
Hour Temp Dew Point Humidity Winds Wind Gusts Pressure Precip Precip Rate Daily Precip Total
12:00 AM 43.2°F6.2°C 30.6°F-0.8°C 61% 2.6 mph SSW4.2 kmh SSW 3.4 mph5.5 kmh 30.48 in1032.2 mb 0.00 in0.0 mm 0.00 in0.0 mm 0.00 in0.0 mm
12:10 AM 43.2°F6.2°C 30.6°F-0.8°C 61% 0.9 mph SE1.4 kmh SE 2.5 mph4.0 kmh 30.48 in1032.2 mb 0.00 in0.0 mm 0.00 in0.0 mm 0.00 in0.0 mm
12:20 AM 43.0°F6.1°C 30.4°F-0.9°C 61% 1.5 mph SW2.4 kmh SW 3.4 mph5.5 kmh 30.47 in1031.8 mb 0.00 in0.0 mm 0.00 in0.0 mm 0.00 in0.0 mm
12:30 AM 43.0°F6.1°C 30.4°F-0.9°C 61% 2.6 mph SSW4.2 kmh SSW 4.2 mph6.8 kmh 30.47 in1031.8 mb 0.00 in0.0 mm 0.00 in0.0 mm 0.00 in0.0 mm
12:40 AM 43.0°F6.1°C 30.8°F-0.7°C 62% 1.6 mph SSW2.6 kmh SSW 3.4 mph5.5 kmh 30.46 in1031.5 mb 0.00 in0.0 mm 0.00 in0.0 mm 0.00 in0.0 mm
12:50 AM 42.8°F6.0°C 30.7°F-0.7°C 62% 2.5 mph SSE4.0 kmh SSE 3.4 mph5.5 kmh 30.46 in1031.5 mb 0.00 in0.0 mm 0.00 in0.0 mm 0.00 in0.0 mm
01:00 AM 42.8°F6.0°C 31.1°F-0.5°C 63% 3.7 mph S6.0 kmh S 4.2 mph6.8 kmh 30.45 in1031.2 mb 0.00 in0.0 mm 0.00 in0.0 mm 0.00 in0.0 mm
01:10 AM 42.8°F6.0°C 31.5°F-0.3°C 64% 3.6 mph SW5.8 kmh SW 3.4 mph5.5 kmh 30.45 in1031.2 mb 0.00 in0.0 mm 0.00 in0.0 mm 0.00 in0.0 mm
01:20 AM 42.8°F6.0°C 31.5°F-0.3°C 64% 3.7 mph SSW6.0 kmh SSW 3.4 mph5.5 kmh 30.45 in1031.2 mb 0.00 in0.0 mm 0.00 in0.0 mm 0.00 in0.0 mm
01:30 AM 43.0°F6.1°C 32.0°F0.0°C 65% 3.8 mph S6.1 kmh S 5.9 mph9.5 kmh 30.44 in1030.8 mb 0.00 in0.0 mm 0.00 in0.0 mm 0.00 in0.0 mm
01:40 AM 43.0°F6.1°C 32.4°F0.2°C 66% 3.1 mph SW5.0 kmh SW 4.2 mph6.8 kmh 30.45 in1031.2 mb 0.00 in0.0 mm 0.00 in0.0 mm 0.00 in0.0 mm
01:50 AM 42.8°F6.0°C 32.6°F0.3°C 67% 2.2 mph WSW3.5 kmh WSW 3.4 mph5.5 kmh 30.45 in1031.2 mb 0.00 in0.0 mm 0.00 in0.0 mm 0.00 in0.0 mm
02:00 AM 42.6°F5.9°C 32.8°F0.4°C 68% 2.4 mph SW3.9 kmh SW 3.4 mph5.5 kmh 30.44 in1030.8 mb 0.00 in0.0 mm 0.00 in0.0 mm 0.00 in0.0 mm
02:10 AM 42.4°F5.8°C 33.3°F0.7°C 70% 1.7 mph SW2.7 kmh SW 4.2 mph6.8 kmh 30.43 in1030.5 mb 0.00 in0.0 mm 0.00 in0.0 mm 0.00 in0.0 mm
02:20 AM 42.4°F5.8°C 33.7°F0.9°C 71% 2.6 mph SSW4.2 kmh SSW 3.4 mph5.5 kmh 30.44 in1030.8 mb 0.00 in0.0 mm 0.00 in0.0 mm 0.00 in0.0 mm
02:30 AM 42.3°F5.7°C 33.5°F0.8°C 71% 2.2 mph SW3.5 kmh SW 3.4 mph5.5 kmh 30.44 in1030.8 mb 0.00 in0.0 mm 0.00 in0.0 mm 0.00 in0.0 mm
02:40 AM 42.1°F5.6°C 33.4°F0.8°C 71% 2.0 mph SW3.2 kmh SW 3.4 mph5.5 kmh 30.43 in1030.5 mb 0.00 in0.0 mm 0.00 in0.0 mm 0.00 in0.0 mm
02:50 AM 41.9°F5.5°C 33.5°F0.8°C 72% 2.0 mph SW3.2 kmh SW 3.4 mph5.5 kmh 30.43 in1030.5 mb 0.00 in0.0 mm 0.00 in0.0 mm 0.00 in0.0 mm
03:00 AM 41.7°F5.4°C 33.4°F0.8°C 72% 0.7 mph SW1.1 kmh SW 1.7 mph2.7 kmh 30.43 in1030.5 mb 0.00 in0.0 mm 0.00 in0.0 mm 0.00 in0.0 mm
03:10 AM 41.7°F5.4°C 33.4°F0.8°C 72% 1.4 mph SW2.3 kmh SW 2.5 mph4.0 kmh 30.43 in1030.5 mb 0.00 in0.0 mm 0.00 in0.0 mm 0.00 in0.0 mm
03:20 AM 41.5°F5.3°C 33.2°F0.7°C 72% 1.1 mph WSW1.8 kmh WSW 2.5 mph4.0 kmh 30.42 in1030.1 mb 0.00 in0.0 mm 0.00 in0.0 mm 0.00 in0.0 mm
03:30 AM 41.4°F5.2°C 33.0°F0.6°C 72% 0.6 mph WSW1.0 kmh WSW 1.7 mph2.7 kmh 30.43 in1030.5 mb 0.00 in0.0 mm 0.00 in0.0 mm 0.00 in0.0 mm
03:40 AM 41.2°F5.1°C 32.8°F0.4°C 72% 0.9 mph SW1.4 kmh SW 1.7 mph2.7 kmh 30.42 in1030.1 mb 0.00 in0.0 mm 0.00 in0.0 mm 0.00 in0.0 mm
03:50 AM 41.0°F5.0°C 32.7°F0.4°C 72% 0.7 mph SW1.1 kmh SW 1.7 mph2.7 kmh 30.43 in1030.5 mb 0.00 in0.0 mm 0.00 in0.0 mm 0.00 in0.0 mm
04:00 AM 40.8°F4.9°C 32.1°F0.1°C 71% 0.4 mph SW0.6 kmh SW 1.7 mph2.7 kmh 30.42 in1030.1 mb 0.00 in0.0 mm 0.00 in0.0 mm 0.00 in0.0 mm
04:10 AM 40.6°F4.8°C 32.0°F0.0°C 71% 0.6 mph SE1.0 kmh SE 1.7 mph2.7 kmh 30.42 in1030.1 mb 0.00 in0.0 mm 0.00 in0.0 mm 0.00 in0.0 mm
04:20 AM 40.5°F4.7°C 31.8°F-0.1°C 71% 0.9 mph S1.4 kmh S 2.5 mph4.0 kmh 30.41 in1029.8 mb 0.00 in0.0 mm 0.00 in0.0 mm 0.00 in0.0 mm
04:30 AM 40.1°F4.5°C 31.4°F-0.3°C 71% 0.8 mph WSW1.3 kmh WSW 2.5 mph4.0 kmh 30.41 in1029.8 mb 0.00 in0.0 mm 0.00 in0.0 mm 0.00 in0.0 mm
04:40 AM 40.1°F4.5°C 31.4°F-0.3°C 71% 1.2 mph WSW1.9 kmh WSW 2.5 mph4.0 kmh 30.42 in1030.1 mb 0.00 in0.0 mm 0.00 in0.0 mm 0.00 in0.0 mm
04:50 AM 39.7°F4.3°C 31.1°F-0.5°C 71% 1.2 mph SW1.9 kmh SW 2.5 mph4.0 kmh 30.40 in1029.5 mb 0.00 in0.0 mm 0.00 in0.0 mm 0.00 in0.0 mm
05:00 AM 39.4°F4.1°C 30.8°F-0.7°C 71% 1.6 mph WSW2.6 kmh WSW 2.5 mph4.0 kmh 30.40 in1029.5 mb 0.00 in0.0 mm 0.00 in0.0 mm 0.00 in0.0 mm
05:10 AM 39.0°F3.9°C 30.4°F-0.9°C 71% 1.3 mph NW2.1 kmh NW 2.5 mph4.0 kmh 30.40 in1029.5 mb 0.00 in0.0 mm 0.00 in0.0 mm 0.00 in0.0 mm
05:20 AM 38.7°F3.7°C 30.1°F-1.1°C 71% 1.4 mph SSW2.3 kmh SSW 2.5 mph4.0 kmh 30.40 in1029.5 mb 0.00 in0.0 mm 0.00 in0.0 mm 0.00 in0.0 mm
05:30 AM 38.5°F3.6°C 29.9°F-1.2°C 71% 1.1 mph SW1.8 kmh SW 1.7 mph2.7 kmh 30.40 in1029.5 mb 0.00 in0.0 mm 0.00 in0.0 mm 0.00 in0.0 mm
05:40 AM 38.1°F3.4°C 29.5°F-1.4°C 71% 1.2 mph SW1.9 kmh SW 2.5 mph4.0 kmh 30.39 in1029.1 mb 0.00 in0.0 mm 0.00 in0.0 mm 0.00 in0.0 mm
05:50 AM 37.8°F3.2°C 29.2°F-1.6°C 71% 0.9 mph SW1.4 kmh SW 2.5 mph4.0 kmh 30.39 in1029.1 mb 0.00 in0.0 mm 0.00 in0.0 mm 0.00 in0.0 mm
06:00 AM 37.6°F3.1°C 29.4°F-1.4°C 72% 1.0 mph SW1.6 kmh SW 1.7 mph2.7 kmh 30.39 in1029.1 mb 0.00 in0.0 mm 0.00 in0.0 mm 0.00 in0.0 mm
06:10 AM 37.2°F2.9°C 29.0°F-1.7°C 72% 0.8 mph SW1.3 kmh SW 1.7 mph2.7 kmh 30.39 in1029.1 mb 0.00 in0.0 mm 0.00 in0.0 mm 0.00 in0.0 mm
06:20 AM 37.0°F2.8°C 28.8°F-1.8°C 72% 0.5 mph WSW0.8 kmh WSW 1.7 mph2.7 kmh 30.40 in1029.5 mb 0.00 in0.0 mm 0.00 in0.0 mm 0.00 in0.0 mm
06:30 AM 36.9°F2.7°C 28.7°F-1.8°C 72% 0.3 mph SW0.5 kmh SW 1.7 mph2.7 kmh 30.40 in1029.5 mb 0.00 in0.0 mm 0.00 in0.0 mm 0.00 in0.0 mm
06:40 AM 37.0°F2.8°C 29.2°F-1.6°C 73% 1.3 mph SW2.1 kmh SW 3.4 mph5.5 kmh 30.40 in1029.5 mb 0.00 in0.0 mm 0.00 in0.0 mm 0.00 in0.0 mm
06:50 AM 37.2°F2.9°C 29.4°F-1.4°C 73% 2.0 mph W3.2 kmh W 2.5 mph4.0 kmh 30.40 in1029.5 mb 0.00 in0.0 mm 0.00 in0.0 mm 0.00 in0.0 mm
07:00 AM 37.6°F3.1°C 30.0°F-1.1°C 74% 1.8 mph SSW2.9 kmh SSW 2.5 mph4.0 kmh 30.40 in1029.5 mb 0.00 in0.0 mm 0.00 in0.0 mm 0.00 in0.0 mm
07:10 AM 37.9°F3.3°C 30.4°F-0.9°C 74% 1.7 mph S2.7 kmh S 3.4 mph5.5 kmh 30.40 in1029.5 mb 0.00 in0.0 mm 0.00 in0.0 mm 0.00 in0.0 mm
07:20 AM 38.5°F3.6°C 31.2°F-0.4°C 75% 3.2 mph WSW5.1 kmh WSW 4.2 mph6.8 kmh 30.40 in1029.5 mb 0.00 in0.0 mm 0.00 in0.0 mm 0.00 in0.0 mm
07:30 AM 39.0°F3.9°C 32.1°F0.1°C 76% 2.6 mph SW4.2 kmh SW 4.2 mph6.8 kmh 30.41 in1029.8 mb 0.00 in0.0 mm 0.00 in0.0 mm 0.00 in0.0 mm
07:40 AM 39.6°F4.2°C 32.6°F0.3°C 76% 2.5 mph WSW4.0 kmh WSW 3.4 mph5.5 kmh 30.40 in1029.5 mb 0.00 in0.0 mm 0.00 in0.0 mm 0.00 in0.0 mm
07:50 AM 40.3°F4.6°C 33.3°F0.7°C 76% 2.9 mph WSW4.7 kmh WSW 4.9 mph7.9 kmh 30.41 in1029.8 mb 0.00 in0.0 mm 0.00 in0.0 mm 0.00 in0.0 mm
08:00 AM 41.4°F5.2°C 34.0°F1.1°C 75% 2.0 mph SSW3.2 kmh SSW 3.4 mph5.5 kmh 30.41 in1029.8 mb 0.00 in0.0 mm 0.00 in0.0 mm 0.00 in0.0 mm
08:10 AM 42.3°F5.7°C 34.2°F1.2°C 73% 2.7 mph SSW4.3 kmh SSW 4.9 mph7.9 kmh 30.41 in1029.8 mb 0.00 in0.0 mm 0.00 in0.0 mm 0.00 in0.0 mm
08:20 AM 43.0°F6.1°C 33.9°F1.1°C 70% 2.7 mph SSE4.3 kmh SSE 4.2 mph6.8 kmh 30.41 in1029.8 mb 0.00 in0.0 mm 0.00 in0.0 mm 0.00 in0.0 mm
08:30 AM 43.5°F6.4°C 33.3°F0.7°C 67% 2.8 mph WSW4.5 kmh WSW 5.9 mph9.5 kmh 30.41 in1029.8 mb 0.00 in0.0 mm 0.00 in0.0 mm 0.00 in0.0 mm
08:40 AM 44.1°F6.7°C 33.0°F0.6°C 65% 3.1 mph SW5.0 kmh SW 6.6 mph10.6 kmh 30.40 in1029.5 mb 0.00 in0.0 mm 0.00 in0.0 mm 0.00 in0.0 mm
08:50 AM 44.4°F6.9°C 33.0°F0.6°C 64% 2.9 mph W4.7 kmh W 3.4 mph5.5 kmh 30.40 in1029.5 mb 0.00 in0.0 mm 0.00 in0.0 mm 0.00 in0.0 mm
09:00 AM 45.1°F7.3°C 32.1°F0.1°C 60% 3.4 mph SW5.5 kmh SW 4.2 mph6.8 kmh 30.40 in1029.5 mb 0.00 in0.0 mm 0.00 in0.0 mm 0.00 in0.0 mm
09:10 AM 45.7°F7.6°C 31.7°F-0.2°C 58% 4.0 mph W6.4 kmh W 3.4 mph5.5 kmh 30.41 in1029.8 mb 0.00 in0.0 mm 0.00 in0.0 mm 0.00 in0.0 mm
09:20 AM 46.2°F7.9°C 30.0°F-1.1°C 53% 4.0 mph SW6.4 kmh SW 5.9 mph9.5 kmh 30.40 in1029.5 mb 0.00 in0.0 mm 0.00 in0.0 mm 0.00 in0.0 mm
09:30 AM 47.5°F8.6°C 30.7°F-0.7°C 52% 4.7 mph WSW7.6 kmh WSW 6.6 mph10.6 kmh 30.41 in1029.8 mb 0.00 in0.0 mm 0.00 in0.0 mm 0.00 in0.0 mm
09:40 AM 52.0°F11.1°C 32.9°F0.5°C 48% 4.9 mph SSW7.9 kmh SSW 6.6 mph10.6 kmh 30.40 in1029.5 mb 0.00 in0.0 mm 0.00 in0.0 mm 0.00 in0.0 mm
09:50 AM 52.2°F11.2°C 29.7°F-1.3°C 42% 6.2 mph SE10.0 kmh SE 9.1 mph14.6 kmh 30.41 in1029.8 mb 0.00 in0.0 mm 0.00 in0.0 mm 0.00 in0.0 mm
10:00 AM 53.1°F11.7°C 30.0°F-1.1°C 41% 6.2 mph SE10.0 kmh SE 11.8 mph19.0 kmh 30.41 in1029.8 mb 0.00 in0.0 mm 0.00 in0.0 mm 0.00 in0.0 mm
10:10 AM 54.1°F12.3°C 29.1°F-1.6°C 38% 5.9 mph SE9.5 kmh SE 9.1 mph14.6 kmh 30.40 in1029.5 mb 0.00 in0.0 mm 0.00 in0.0 mm 0.00 in0.0 mm
10:20 AM 54.7°F12.6°C 30.8°F-0.7°C 40% 6.2 mph S10.0 kmh S 9.1 mph14.6 kmh 30.39 in1029.1 mb 0.00 in0.0 mm 0.00 in0.0 mm 0.00 in0.0 mm
10:30 AM 56.1°F13.4°C 30.2°F-1.0°C 37% 4.2 mph SSW6.8 kmh SSW 7.6 mph12.2 kmh 30.39 in1029.1 mb 0.00 in0.0 mm 0.00 in0.0 mm 0.00 in0.0 mm
10:40 AM 56.3°F13.5°C 31.0°F-0.6°C 38% 3.7 mph S6.0 kmh S 5.9 mph9.5 kmh 30.39 in1029.1 mb 0.00 in0.0 mm 0.00 in0.0 mm 0.00 in0.0 mm
10:50 AM 56.3°F13.5°C 30.3°F-0.9°C 37% 4.6 mph SSW7.4 kmh SSW 5.9 mph9.5 kmh 30.38 in1028.8 mb 0.00 in0.0 mm 0.00 in0.0 mm 0.00 in0.0 mm
11:00 AM 56.8°F13.8°C 29.4°F-1.4°C 35% 6.3 mph S10.1 kmh S 9.1 mph14.6 kmh 30.37 in1028.4 mb 0.00 in0.0 mm 0.00 in0.0 mm 0.00 in0.0 mm
11:10 AM 56.8°F13.8°C 29.4°F-1.4°C 35% 6.0 mph N9.7 kmh N 4.9 mph7.9 kmh 30.38 in1028.8 mb 0.00 in0.0 mm 0.00 in0.0 mm 0.00 in0.0 mm
11:20 AM 56.1°F13.4°C 28.1°F-2.2°C 34% 6.6 mph W10.6 kmh W 7.6 mph12.2 kmh 30.37 in1028.4 mb 0.00 in0.0 mm 0.00 in0.0 mm 0.00 in0.0 mm
11:30 AM 57.0°F13.9°C 29.6°F-1.3°C 35% 5.9 mph SSW9.5 kmh SSW 9.1 mph14.6 kmh 30.37 in1028.4 mb 0.00 in0.0 mm 0.00 in0.0 mm 0.00 in0.0 mm
11:40 AM 53.8°F12.1°C 26.0°F-3.3°C 34% 6.6 mph WSW10.6 kmh WSW 7.6 mph12.2 kmh 30.36 in1028.1 mb 0.00 in0.0 mm 0.00 in0.0 mm 0.00 in0.0 mm
11:50 AM 55.6°F13.1°C 27.6°F-2.4°C 34% 6.8 mph WSW10.9 kmh WSW 7.6 mph12.2 kmh 30.36 in1028.1 mb 0.00 in0.0 mm 0.00 in0.0 mm 0.00 in0.0 mm
12:00 PM 55.8°F13.2°C 27.1°F-2.7°C 33% 6.6 mph WSW10.6 kmh WSW 8.4 mph13.5 kmh 30.36 in1028.1 mb 0.00 in0.0 mm 0.00 in0.0 mm 0.00 in0.0 mm
12:10 PM 55.9°F13.3°C 27.9°F-2.3°C 34% 7.3 mph SE11.7 kmh SE 12.5 mph20.1 kmh 30.36 in1028.1 mb 0.00 in0.0 mm 0.00 in0.0 mm 0.00 in0.0 mm
12:20 PM 54.3°F12.4°C 27.2°F-2.7°C 35% 7.5 mph WNW12.1 kmh WNW 10.1 mph16.3 kmh 30.35 in1027.8 mb 0.00 in0.0 mm 0.00 in0.0 mm 0.00 in0.0 mm
12:30 PM 55.6°F13.1°C 27.6°F-2.4°C 34% 10.1 mph WSW16.3 kmh WSW 10.1 mph16.3 kmh 30.35 in1027.8 mb 0.00 in0.0 mm 0.00 in0.0 mm 0.00 in0.0 mm
12:40 PM 55.8°F13.2°C 27.8°F-2.3°C 34% 11.5 mph WSW18.5 kmh WSW 15.0 mph24.1 kmh 30.34 in1027.4 mb 0.00 in0.0 mm 0.00 in0.0 mm 0.00 in0.0 mm
12:50 PM 55.6°F13.1°C 29.0°F-1.7°C 36% 11.8 mph SW19.0 kmh SW 15.0 mph24.1 kmh 30.33 in1027.1 mb 0.00 in0.0 mm 0.00 in0.0 mm 0.00 in0.0 mm
01:00 PM 55.8°F13.2°C 29.2°F-1.6°C 36% 11.5 mph NNE18.5 kmh NNE 14.3 mph23.0 kmh 30.33 in1027.1 mb 0.00 in0.0 mm 0.00 in0.0 mm 0.00 in0.0 mm
01:10 PM 55.8°F13.2°C 27.8°F-2.3°C 34% 13.1 mph W21.1 kmh W 16.7 mph26.9 kmh 30.34 in1027.4 mb 0.00 in0.0 mm 0.00 in0.0 mm 0.00 in0.0 mm
01:20 PM 55.6°F13.1°C 27.6°F-2.4°C 34% 11.9 mph SW19.2 kmh SW 14.3 mph23.0 kmh 30.33 in1027.1 mb 0.00 in0.0 mm 0.00 in0.0 mm 0.00 in0.0 mm
01:30 PM 55.2°F12.9°C 27.3°F-2.6°C 34% 9.4 mph SE15.1 kmh SE 10.8 mph17.4 kmh 30.32 in1026.8 mb 0.00 in0.0 mm 0.00 in0.0 mm 0.00 in0.0 mm
01:40 PM 55.6°F13.1°C 27.6°F-2.4°C 34% 7.3 mph W11.7 kmh W 8.4 mph13.5 kmh 30.32 in1026.8 mb 0.00 in0.0 mm 0.00 in0.0 mm 0.00 in0.0 mm
01:50 PM 54.9°F12.7°C 27.7°F-2.4°C 35% 8.4 mph W13.5 kmh W 10.1 mph16.3 kmh 30.32 in1026.8 mb 0.00 in0.0 mm 0.00 in0.0 mm 0.00 in0.0 mm
02:00 PM 54.3°F12.4°C 27.9°F-2.3°C 36% 6.4 mph S10.3 kmh S 7.6 mph12.2 kmh 30.32 in1026.8 mb 0.00 in0.0 mm 0.00 in0.0 mm 0.00 in0.0 mm
02:10 PM 55.2°F12.9°C 29.4°F-1.4°C 37% 8.0 mph WSW12.9 kmh WSW 16.0 mph25.7 kmh 30.31 in1026.4 mb 0.00 in0.0 mm 0.00 in0.0 mm 0.00 in0.0 mm
02:20 PM 55.2°F12.9°C 28.7°F-1.8°C 36% 10.3 mph SW16.6 kmh SW 16.7 mph26.9 kmh 30.31 in1026.4 mb 0.00 in0.0 mm 0.00 in0.0 mm 0.00 in0.0 mm
02:30 PM 55.4°F13.0°C 28.2°F-2.1°C 35% 8.4 mph SW13.5 kmh SW 10.1 mph16.3 kmh 30.31 in1026.4 mb 0.00 in0.0 mm 0.00 in0.0 mm 0.00 in0.0 mm
02:40 PM 55.0°F12.8°C 28.5°F-1.9°C 36% 6.9 mph SW11.1 kmh SW 9.1 mph14.6 kmh 30.31 in1026.4 mb 0.00 in0.0 mm 0.00 in0.0 mm 0.00 in0.0 mm
02:50 PM 55.8°F13.2°C 28.5°F-1.9°C 35% 9.0 mph SW14.5 kmh SW 14.3 mph23.0 kmh 30.30 in1026.1 mb 0.00 in0.0 mm 0.00 in0.0 mm 0.00 in0.0 mm
03:00 PM 55.2°F12.9°C 27.3°F-2.6°C 34% 9.6 mph SSW15.4 kmh SSW 13.3 mph21.4 kmh 30.30 in1026.1 mb 0.00 in0.0 mm 0.00 in0.0 mm 0.00 in0.0 mm
03:10 PM 54.3°F12.4°C 26.5°F-3.1°C 34% 17.0 mph S27.4 kmh S 16.0 mph25.7 kmh 30.31 in1026.4 mb 0.00 in0.0 mm 0.00 in0.0 mm 0.00 in0.0 mm
03:20 PM 53.8°F12.1°C 28.1°F-2.2°C 37% 9.0 mph S14.5 kmh S 13.3 mph21.4 kmh 30.31 in1026.4 mb 0.00 in0.0 mm 0.00 in0.0 mm 0.00 in0.0 mm
03:30 PM 53.4°F11.9°C 30.3°F-0.9°C 41% 9.5 mph SW15.3 kmh SW 15.0 mph24.1 kmh 30.30 in1026.1 mb 0.00 in0.0 mm 0.00 in0.0 mm 0.00 in0.0 mm
03:40 PM 53.4°F11.9°C 29.7°F-1.3°C 40% 9.8 mph N15.8 kmh N 13.3 mph21.4 kmh 30.30 in1026.1 mb 0.00 in0.0 mm 0.00 in0.0 mm 0.00 in0.0 mm
03:50 PM 52.7°F11.5°C 29.6°F-1.3°C 41% 8.4 mph WSW13.5 kmh WSW 18.5 mph29.8 kmh 30.30 in1026.1 mb 0.00 in0.0 mm 0.00 in0.0 mm 0.00 in0.0 mm
04:00 PM 53.1°F11.7°C 30.0°F-1.1°C 41% 9.8 mph SW15.8 kmh SW 11.8 mph19.0 kmh 30.30 in1026.1 mb 0.00 in0.0 mm 0.00 in0.0 mm 0.00 in0.0 mm
04:10 PM 53.1°F11.7°C 30.6°F-0.8°C 42% 7.3 mph WSW11.7 kmh WSW 8.4 mph13.5 kmh 30.29 in1025.7 mb 0.00 in0.0 mm 0.00 in0.0 mm 0.00 in0.0 mm
04:20 PM 52.7°F11.5°C 30.2°F-1.0°C 42% 7.3 mph SSW11.7 kmh SSW 8.4 mph13.5 kmh 30.30 in1026.1 mb 0.00 in0.0 mm 0.00 in0.0 mm 0.00 in0.0 mm
04:30 PM 52.2°F11.2°C 30.3°F-0.9°C 43% 8.2 mph SW13.2 kmh SW 10.1 mph16.3 kmh 30.30 in1026.1 mb 0.00 in0.0 mm 0.00 in0.0 mm 0.00 in0.0 mm
04:40 PM 51.8°F11.0°C 30.0°F-1.1°C 43% 7.6 mph SW12.2 kmh SW 12.5 mph20.1 kmh 30.30 in1026.1 mb 0.00 in0.0 mm 0.00 in0.0 mm 0.00 in0.0 mm
04:50 PM 51.6°F10.9°C 29.8°F-1.2°C 43% 5.5 mph SSW8.9 kmh SSW 7.6 mph12.2 kmh 30.30 in1026.1 mb 0.00 in0.0 mm 0.00 in0.0 mm 0.00 in0.0 mm
05:00 PM 51.3°F10.7°C 30.1°F-1.1°C 44% 6.7 mph S10.8 kmh S 9.1 mph14.6 kmh 30.29 in1025.7 mb 0.00 in0.0 mm 0.00 in0.0 mm 0.00 in0.0 mm
05:10 PM 50.9°F10.5°C 30.3°F-0.9°C 45% 6.8 mph SSE10.9 kmh SSE 13.3 mph21.4 kmh 30.29 in1025.7 mb 0.00 in0.0 mm 0.00 in0.0 mm 0.00 in0.0 mm
05:20 PM 50.5°F10.3°C 30.0°F-1.1°C 45% 8.7 mph WNW14.0 kmh WNW 10.8 mph17.4 kmh 30.29 in1025.7 mb 0.00 in0.0 mm 0.00 in0.0 mm 0.00 in0.0 mm
05:30 PM 50.4°F10.2°C 30.3°F-0.9°C 46% 7.6 mph SW12.2 kmh SW 9.1 mph14.6 kmh 30.29 in1025.7 mb 0.00 in0.0 mm 0.00 in0.0 mm 0.00 in0.0 mm
05:40 PM 50.0°F10.0°C 31.1°F-0.5°C 48% 8.7 mph W14.0 kmh W 7.6 mph12.2 kmh 30.29 in1025.7 mb 0.00 in0.0 mm 0.00 in0.0 mm 0.00 in0.0 mm
05:50 PM 49.8°F9.9°C 30.9°F-0.6°C 48% 7.3 mph W11.7 kmh W 7.6 mph12.2 kmh 30.28 in1025.4 mb 0.00 in0.0 mm 0.00 in0.0 mm 0.00 in0.0 mm
06:00 PM 49.3°F9.6°C 31.4°F-0.3°C 50% 6.9 mph S11.1 kmh S 9.1 mph14.6 kmh 30.28 in1025.4 mb 0.00 in0.0 mm 0.00 in0.0 mm 0.00 in0.0 mm
06:10 PM 48.7°F9.3°C 30.9°F-0.6°C 50% 7.5 mph S12.1 kmh S 12.5 mph20.1 kmh 30.28 in1025.4 mb 0.00 in0.0 mm 0.00 in0.0 mm 0.00 in0.0 mm
06:20 PM 48.7°F9.3°C 31.4°F-0.3°C 51% 5.7 mph SW9.2 kmh SW 6.6 mph10.6 kmh 30.28 in1025.4 mb 0.00 in0.0 mm 0.00 in0.0 mm 0.00 in0.0 mm
06:30 PM 48.4°F9.1°C 31.1°F-0.5°C 51% 6.7 mph SW10.8 kmh SW 7.6 mph12.2 kmh 30.28 in1025.4 mb 0.00 in0.0 mm 0.00 in0.0 mm 0.00 in0.0 mm
06:40 PM 48.0°F8.9°C 31.2°F-0.4°C 52% 8.1 mph SW13.0 kmh SW 10.8 mph17.4 kmh 30.29 in1025.7 mb 0.00 in0.0 mm 0.00 in0.0 mm 0.00 in0.0 mm
06:50 PM 47.8°F8.8°C 31.5°F-0.3°C 53% 6.5 mph WNW10.5 kmh WNW 10.8 mph17.4 kmh 30.28 in1025.4 mb 0.00 in0.0 mm 0.00 in0.0 mm 0.00 in0.0 mm
07:00 PM 47.8°F8.8°C 32.0°F0.0°C 54% 6.3 mph WSW10.1 kmh WSW 6.6 mph10.6 kmh 30.28 in1025.4 mb 0.00 in0.0 mm 0.00 in0.0 mm 0.00 in0.0 mm
07:10 PM 47.8°F8.8°C 32.0°F0.0°C 54% 8.1 mph SW13.0 kmh SW 6.6 mph10.6 kmh 30.28 in1025.4 mb 0.00 in0.0 mm 0.00 in0.0 mm 0.00 in0.0 mm
07:20 PM 47.5°F8.6°C 31.6°F-0.2°C 54% 8.7 mph WSW14.0 kmh WSW 10.8 mph17.4 kmh 30.27 in1025.1 mb 0.00 in0.0 mm 0.00 in0.0 mm 0.00 in0.0 mm
07:30 PM 47.1°F8.4°C 31.8°F-0.1°C 55% 8.9 mph SW14.3 kmh SW 10.1 mph16.3 kmh 30.27 in1025.1 mb 0.00 in0.0 mm 0.00 in0.0 mm 0.00 in0.0 mm
07:40 PM 46.8°F8.2°C 31.9°F-0.1°C 56% 8.0 mph SW12.9 kmh SW 10.8 mph17.4 kmh 30.27 in1025.1 mb 0.00 in0.0 mm 0.00 in0.0 mm 0.00 in0.0 mm
07:50 PM 46.2°F7.9°C 31.8°F-0.1°C 57% 5.1 mph SW8.2 kmh SW 5.9 mph9.5 kmh 30.28 in1025.4 mb 0.00 in0.0 mm 0.00 in0.0 mm 0.00 in0.0 mm
08:00 PM 45.9°F7.7°C 32.3°F0.2°C 59% 4.6 mph W7.4 kmh W 6.6 mph10.6 kmh 30.27 in1025.1 mb 0.00 in0.0 mm 0.00 in0.0 mm 0.00 in0.0 mm
08:10 PM 45.5°F7.5°C 32.4°F0.2°C 60% 6.2 mph SW10.0 kmh SW 6.6 mph10.6 kmh 30.27 in1025.1 mb 0.00 in0.0 mm 0.00 in0.0 mm 0.00 in0.0 mm
08:20 PM 45.7°F7.6°C 33.0°F0.6°C 61% 8.8 mph SW14.2 kmh SW 12.5 mph20.1 kmh 30.27 in1025.1 mb 0.00 in0.0 mm 0.00 in0.0 mm 0.00 in0.0 mm
08:30 PM 45.9°F7.7°C 33.2°F0.7°C 61% 7.0 mph S11.3 kmh S 12.5 mph20.1 kmh 30.27 in1025.1 mb 0.00 in0.0 mm 0.00 in0.0 mm 0.00 in0.0 mm
08:40 PM 45.9°F7.7°C 33.6°F0.9°C 62% 6.6 mph WSW10.6 kmh WSW 7.6 mph12.2 kmh 30.27 in1025.1 mb 0.00 in0.0 mm 0.00 in0.0 mm 0.00 in0.0 mm
08:50 PM 45.7°F7.6°C 33.4°F0.8°C 62% 6.7 mph SW10.8 kmh SW 7.6 mph12.2 kmh 30.26 in1024.7 mb 0.00 in0.0 mm 0.00 in0.0 mm 0.00 in0.0 mm
09:00 PM 45.3°F7.4°C 33.1°F0.6°C 62% 6.7 mph SSW10.8 kmh SSW 9.1 mph14.6 kmh 30.27 in1025.1 mb 0.00 in0.0 mm 0.00 in0.0 mm 0.00 in0.0 mm
09:10 PM 45.1°F7.3°C 33.3°F0.7°C 63% 6.2 mph SW10.0 kmh SW 6.6 mph10.6 kmh 30.26 in1024.7 mb 0.00 in0.0 mm 0.00 in0.0 mm 0.00 in0.0 mm
09:20 PM 45.5°F7.5°C 33.6°F0.9°C 63% 7.0 mph WSW11.3 kmh WSW 7.6 mph12.2 kmh 30.26 in1024.7 mb 0.00 in0.0 mm 0.00 in0.0 mm 0.00 in0.0 mm
09:30 PM 45.7°F7.6°C 34.2°F1.2°C 64% 6.3 mph SW10.1 kmh SW 9.1 mph14.6 kmh 30.26 in1024.7 mb 0.00 in0.0 mm 0.00 in0.0 mm 0.00 in0.0 mm
09:40 PM 45.9°F7.7°C 34.0°F1.1°C 63% 6.1 mph SSE9.8 kmh SSE 9.1 mph14.6 kmh 30.26 in1024.7 mb 0.00 in0.0 mm 0.00 in0.0 mm 0.00 in0.0 mm
09:50 PM 46.0°F7.8°C 34.1°F1.2°C 63% 6.8 mph SW10.9 kmh SW 9.1 mph14.6 kmh 30.26 in1024.7 mb 0.00 in0.0 mm 0.00 in0.0 mm 0.00 in0.0 mm
10:00 PM 46.0°F7.8°C 34.1°F1.2°C 63% 7.2 mph S11.6 kmh S 8.4 mph13.5 kmh 30.25 in1024.4 mb 0.00 in0.0 mm 0.00 in0.0 mm 0.00 in0.0 mm
10:10 PM 45.9°F7.7°C 34.0°F1.1°C 63% 6.7 mph SSW10.8 kmh SSW 10.1 mph16.3 kmh 30.26 in1024.7 mb 0.00 in0.0 mm 0.00 in0.0 mm 0.00 in0.0 mm
10:20 PM 45.5°F7.5°C 33.6°F0.9°C 63% 5.9 mph SSW9.5 kmh SSW 6.6 mph10.6 kmh 30.25 in1024.4 mb 0.00 in0.0 mm 0.00 in0.0 mm 0.00 in0.0 mm
10:30 PM 45.3°F7.4°C 33.5°F0.8°C 63% 7.3 mph ENE11.7 kmh ENE 8.4 mph13.5 kmh 30.25 in1024.4 mb 0.00 in0.0 mm 0.00 in0.0 mm 0.00 in0.0 mm
10:40 PM 45.0°F7.2°C 33.1°F0.6°C 63% 6.6 mph SW10.6 kmh SW 7.6 mph12.2 kmh 30.25 in1024.4 mb 0.00 in0.0 mm 0.00 in0.0 mm 0.00 in0.0 mm
10:50 PM 44.8°F7.1°C 33.3°F0.7°C 64% 6.3 mph SSW10.1 kmh SSW 8.4 mph13.5 kmh 30.25 in1024.4 mb 0.00 in0.0 mm 0.00 in0.0 mm 0.00 in0.0 mm
11:00 PM 44.4°F6.9°C 34.9°F1.6°C 69% 6.3 mph SE10.1 kmh SE 8.4 mph13.5 kmh 30.26 in1024.7 mb 0.00 in0.0 mm 0.00 in0.0 mm 0.00 in0.0 mm
11:10 PM 44.2°F6.8°C 34.7°F1.5°C 69% 5.1 mph SSE8.2 kmh SSE 6.6 mph10.6 kmh 30.26 in1024.7 mb 0.00 in0.0 mm 0.00 in0.0 mm 0.00 in0.0 mm
11:20 PM 44.1°F6.7°C 34.9°F1.6°C 70% 5.6 mph SW9.0 kmh SW 6.6 mph10.6 kmh 30.25 in1024.4 mb 0.00 in0.0 mm 0.00 in0.0 mm 0.00 in0.0 mm
11:30 PM 43.9°F6.6°C 34.7°F1.5°C 70% 6.1 mph SW9.8 kmh SW 8.4 mph13.5 kmh 30.25 in1024.4 mb 0.00 in0.0 mm 0.00 in0.0 mm 0.00 in0.0 mm
11:40 PM 43.7°F6.5°C 34.6°F1.4°C 70% 5.4 mph NE8.7 kmh NE 6.6 mph10.6 kmh 30.25 in1024.4 mb 0.00 in0.0 mm 0.00 in0.0 mm 0.00 in0.0 mm
11:50 PM 43.3°F6.3°C 34.2°F1.2°C 70% 4.6 mph WNW7.4 kmh WNW 5.9 mph9.5 kmh 30.25 in1024.4 mb 0.00 in0.0 mm 0.00 in0.0 mm 0.00 in0.0 mm